sensor_id;sensor_type;location;lat;lon;timestamp;temperature;humidity
14924;DHT22;7554;43.600;1.480;2024-02-26T00:00:09;10.60;99.90
14924;DHT22;7554;43.600;1.480;2024-02-26T00:02:38;9.80;99.90
14924;DHT22;7554;43.600;1.480;2024-02-26T00:05:07;10.10;99.90
14924;DHT22;7554;43.600;1.480;2024-02-26T00:07:34;8.90;99.90
14924;DHT22;7554;43.600;1.480;2024-02-26T00:10:02;9.00;99.90
14924;DHT22;7554;43.600;1.480;2024-02-26T00:12:30;10.00;99.90
14924;DHT22;7554;43.600;1.480;2024-02-26T00:14:57;10.50;99.90
14924;DHT22;7554;43.600;1.480;2024-02-26T00:17:24;9.00;99.90
14924;DHT22;7554;43.600;1.480;2024-02-26T00:19:53;9.30;99.90
14924;DHT22;7554;43.600;1.480;2024-02-26T00:22:20;10.40;99.90
14924;DHT22;7554;43.600;1.480;2024-02-26T00:24:49;9.20;99.90
14924;DHT22;7554;43.600;1.480;2024-02-26T00:27:16;9.90;99.90
14924;DHT22;7554;43.600;1.480;2024-02-26T00:29:43;9.10;99.90
14924;DHT22;7554;43.600;1.480;2024-02-26T00:32:10;8.60;99.90
14924;DHT22;7554;43.600;1.480;2024-02-26T00:34:38;9.80;99.90
14924;DHT22;7554;43.600;1.480;2024-02-26T00:37:07;8.60;99.90
14924;DHT22;7554;43.600;1.480;2024-02-26T00:39:34;9.00;99.90
14924;DHT22;7554;43.600;1.480;2024-02-26T00:42:01;8.90;99.90
14924;DHT22;7554;43.600;1.480;2024-02-26T00:44:28;9.80;99.90
14924;DHT22;7554;43.600;1.480;2024-02-26T00:46:56;9.10;99.90
14924;DHT22;7554;43.600;1.480;2024-02-26T00:49:23;8.50;99.90
14924;DHT22;7554;43.600;1.480;2024-02-26T00:51:51;10.00;99.90
14924;DHT22;7554;43.600;1.480;2024-02-26T00:54:19;10.40;99.90
14924;DHT22;7554;43.600;1.480;2024-02-26T00:56:47;9.20;99.90
14924;DHT22;7554;43.600;1.480;2024-02-26T00:59:14;9.20;99.90
14924;DHT22;7554;43.600;1.480;2024-02-26T01:01:41;8.90;99.90
14924;DHT22;7554;43.600;1.480;2024-02-26T01:04:09;9.50;99.90
14924;DHT22;7554;43.600;1.480;2024-02-26T01:06:37;9.80;99.90
14924;DHT22;7554;43.600;1.480;2024-02-26T01:09:05;9.40;99.90
14924;DHT22;7554;43.600;1.480;2024-02-26T01:11:35;9.60;99.90
14924;DHT22;7554;43.600;1.480;2024-02-26T01:14:02;10.50;99.90
14924;DHT22;7554;43.600;1.480;2024-02-26T01:16:30;9.30;99.90
14924;DHT22;7554;43.600;1.480;2024-02-26T01:18:57;10.60;99.90
14924;DHT22;7554;43.600;1.480;2024-02-26T01:21:25;9.70;99.90
14924;DHT22;7554;43.600;1.480;2024-02-26T01:23:54;10.10;99.90
14924;DHT22;7554;43.600;1.480;2024-02-26T01:26:22;8.70;99.90
14924;DHT22;7554;43.600;1.480;2024-02-26T01:28:50;9.10;99.90
14924;DHT22;7554;43.600;1.480;2024-02-26T01:31:18;8.80;99.90
14924;DHT22;7554;43.600;1.480;2024-02-26T01:33:45;10.20;99.90
14924;DHT22;7554;43.600;1.480;2024-02-26T01:36:12;9.20;99.90
14924;DHT22;7554;43.600;1.480;2024-02-26T01:38:40;9.20;99.90
14924;DHT22;7554;43.600;1.480;2024-02-26T01:41:07;9.70;99.90
14924;DHT22;7554;43.600;1.480;2024-02-26T01:43:34;9.90;99.90
14924;DHT22;7554;43.600;1.480;2024-02-26T01:46:03;8.50;99.90
14924;DHT22;7554;43.600;1.480;2024-02-26T01:48:31;9.90;99.90
14924;DHT22;7554;43.600;1.480;2024-02-26T01:50:58;9.70;99.90
14924;DHT22;7554;43.600;1.480;2024-02-26T01:53:26;9.70;99.90
14924;DHT22;7554;43.600;1.480;2024-02-26T01:55:53;9.90;99.90
14924;DHT22;7554;43.600;1.480;2024-02-26T01:58:20;8.80;99.90
14924;DHT22;7554;43.600;1.480;2024-02-26T02:00:48;9.00;99.90
14924;DHT22;7554;43.600;1.480;2024-02-26T02:03:16;8.20;99.90
14924;DHT22;7554;43.600;1.480;2024-02-26T02:05:44;9.90;99.90
14924;DHT22;7554;43.600;1.480;2024-02-26T02:08:13;8.20;99.90
14924;DHT22;7554;43.600;1.480;2024-02-26T02:10:41;8.30;99.90
14924;DHT22;7554;43.600;1.480;2024-02-26T02:13:08;9.80;99.90
14924;DHT22;7554;43.600;1.480;2024-02-26T02:15:36;9.50;99.90
14924;DHT22;7554;43.600;1.480;2024-02-26T02:18:04;9.30;99.90
14924;DHT22;7554;43.600;1.480;2024-02-26T02:20:33;9.50;99.90
14924;DHT22;7554;43.600;1.480;2024-02-26T02:23:01;8.40;99.90
14924;DHT22;7554;43.600;1.480;2024-02-26T02:25:29;8.20;99.90
14924;DHT22;7554;43.600;1.480;2024-02-26T02:27:57;9.40;99.90
14924;DHT22;7554;43.600;1.480;2024-02-26T02:30:26;8.40;99.90
14924;DHT22;7554;43.600;1.480;2024-02-26T02:32:55;9.70;99.90
14924;DHT22;7554;43.600;1.480;2024-02-26T02:35:24;9.60;99.90
14924;DHT22;7554;43.600;1.480;2024-02-26T02:37:53;9.60;99.90
14924;DHT22;7554;43.600;1.480;2024-02-26T02:40:20;8.10;99.90
14924;DHT22;7554;43.600;1.480;2024-02-26T02:42:48;8.40;99.90
14924;DHT22;7554;43.600;1.480;2024-02-26T02:45:15;8.90;99.90
14924;DHT22;7554;43.600;1.480;2024-02-26T02:47:42;9.50;99.90
14924;DHT22;7554;43.600;1.480;2024-02-26T02:50:10;9.60;99.90
14924;DHT22;7554;43.600;1.480;2024-02-26T02:52:37;8.10;99.90
14924;DHT22;7554;43.600;1.480;2024-02-26T02:55:06;9.30;99.90
14924;DHT22;7554;43.600;1.480;2024-02-26T02:57:34;8.20;99.90
14924;DHT22;7554;43.600;1.480;2024-02-26T03:00:07;8.30;99.90
14924;DHT22;7554;43.600;1.480;2024-02-26T03:02:35;7.90;99.90
14924;DHT22;7554;43.600;1.480;2024-02-26T03:05:02;9.50;99.90
14924;DHT22;7554;43.600;1.480;2024-02-26T03:07:30;9.20;99.90
14924;DHT22;7554;43.600;1.480;2024-02-26T03:09:57;9.20;99.90
14924;DHT22;7554;43.600;1.480;2024-02-26T03:12:26;9.30;99.90
14924;DHT22;7554;43.600;1.480;2024-02-26T03:14:54;9.60;99.90
14924;DHT22;7554;43.600;1.480;2024-02-26T03:17:21;8.70;99.90
14924;DHT22;7554;43.600;1.480;2024-02-26T03:19:50;9.60;99.90
14924;DHT22;7554;43.600;1.480;2024-02-26T03:22:20;9.30;99.90
14924;DHT22;7554;43.600;1.480;2024-02-26T03:24:47;9.50;99.90
14924;DHT22;7554;43.600;1.480;2024-02-26T03:27:14;8.40;99.90
14924;DHT22;7554;43.600;1.480;2024-02-26T03:29:43;8.50;99.90
14924;DHT22;7554;43.600;1.480;2024-02-26T03:32:10;8.20;99.90
14924;DHT22;7554;43.600;1.480;2024-02-26T03:34:38;8.60;99.90
14924;DHT22;7554;43.600;1.480;2024-02-26T03:37:06;9.70;99.90
14924;DHT22;7554;43.600;1.480;2024-02-26T03:39:35;8.10;99.90
14924;DHT22;7554;43.600;1.480;2024-02-26T03:42:02;8.10;99.90
14924;DHT22;7554;43.600;1.480;2024-02-26T03:44:30;9.40;99.90
14924;DHT22;7554;43.600;1.480;2024-02-26T03:46:58;9.50;99.90
14924;DHT22;7554;43.600;1.480;2024-02-26T03:49:26;8.20;99.90
14924;DHT22;7554;43.600;1.480;2024-02-26T03:51:53;8.50;99.90
14924;DHT22;7554;43.600;1.480;2024-02-26T03:54:21;8.60;99.90
14924;DHT22;7554;43.600;1.480;2024-02-26T03:56:48;8.10;99.90
14924;DHT22;7554;43.600;1.480;2024-02-26T03:59:15;8.10;99.90
14924;DHT22;7554;43.600;1.480;2024-02-26T04:01:45;8.10;99.90
14924;DHT22;7554;43.600;1.480;2024-02-26T04:04:15;9.20;99.90
14924;DHT22;7554;43.600;1.480;2024-02-26T04:06:44;8.50;99.90
14924;DHT22;7554;43.600;1.480;2024-02-26T04:09:13;9.50;99.90
14924;DHT22;7554;43.600;1.480;2024-02-26T04:11:41;8.30;99.90
14924;DHT22;7554;43.600;1.480;2024-02-26T04:14:10;9.60;99.90
14924;DHT22;7554;43.600;1.480;2024-02-26T04:16:38;9.40;99.90
14924;DHT22;7554;43.600;1.480;2024-02-26T04:19:05;8.90;99.90
14924;DHT22;7554;43.600;1.480;2024-02-26T04:21:34;8.90;99.90
14924;DHT22;7554;43.600;1.480;2024-02-26T04:24:02;8.50;99.90
14924;DHT22;7554;43.600;1.480;2024-02-26T04:26:30;10.20;99.90
14924;DHT22;7554;43.600;1.480;2024-02-26T04:28:58;10.10;99.90
14924;DHT22;7554;43.600;1.480;2024-02-26T04:31:25;8.50;99.90
14924;DHT22;7554;43.600;1.480;2024-02-26T04:33:53;10.10;99.90
14924;DHT22;7554;43.600;1.480;2024-02-26T04:36:20;9.60;99.90
14924;DHT22;7554;43.600;1.480;2024-02-26T04:38:49;9.80;99.90
14924;DHT22;7554;43.600;1.480;2024-02-26T04:41:16;9.60;99.90
14924;DHT22;7554;43.600;1.480;2024-02-26T04:43:44;9.90;99.90
14924;DHT22;7554;43.600;1.480;2024-02-26T04:46:11;9.70;99.90
14924;DHT22;7554;43.600;1.480;2024-02-26T04:48:38;9.20;99.90
14924;DHT22;7554;43.600;1.480;2024-02-26T04:51:07;9.60;99.90
14924;DHT22;7554;43.600;1.480;2024-02-26T04:53:34;9.70;99.90
14924;DHT22;7554;43.600;1.480;2024-02-26T04:56:04;9.10;99.90
14924;DHT22;7554;43.600;1.480;2024-02-26T04:58:31;9.70;99.90
14924;DHT22;7554;43.600;1.480;2024-02-26T05:00:58;8.60;99.90
14924;DHT22;7554;43.600;1.480;2024-02-26T05:03:26;8.90;99.90
14924;DHT22;7554;43.600;1.480;2024-02-26T05:05:53;9.60;99.90
14924;DHT22;7554;43.600;1.480;2024-02-26T05:08:21;9.80;99.90
14924;DHT22;7554;43.600;1.480;2024-02-26T05:10:48;9.50;99.90
14924;DHT22;7554;43.600;1.480;2024-02-26T05:13:16;9.10;99.90
14924;DHT22;7554;43.600;1.480;2024-02-26T05:15:44;9.40;99.90
14924;DHT22;7554;43.600;1.480;2024-02-26T05:18:15;8.90;99.90
14924;DHT22;7554;43.600;1.480;2024-02-26T05:20:42;8.30;99.90
14924;DHT22;7554;43.600;1.480;2024-02-26T05:23:09;9.10;99.90
14924;DHT22;7554;43.600;1.480;2024-02-26T05:25:37;9.50;99.90
14924;DHT22;7554;43.600;1.480;2024-02-26T05:28:05;9.00;99.90
14924;DHT22;7554;43.600;1.480;2024-02-26T05:30:33;8.60;99.90
14924;DHT22;7554;43.600;1.480;2024-02-26T05:33:01;7.70;99.90
14924;DHT22;7554;43.600;1.480;2024-02-26T05:35:28;7.90;99.90
14924;DHT22;7554;43.600;1.480;2024-02-26T05:37:55;9.10;99.90
14924;DHT22;7554;43.600;1.480;2024-02-26T05:40:23;8.50;99.90
14924;DHT22;7554;43.600;1.480;2024-02-26T05:42:50;8.60;99.90
14924;DHT22;7554;43.600;1.480;2024-02-26T05:45:18;7.80;99.90
14924;DHT22;7554;43.600;1.480;2024-02-26T05:47:46;7.10;99.90
14924;DHT22;7554;43.600;1.480;2024-02-26T05:50:15;8.40;99.90
14924;DHT22;7554;43.600;1.480;2024-02-26T05:52:43;7.10;99.90
14924;DHT22;7554;43.600;1.480;2024-02-26T05:55:10;8.50;99.90
14924;DHT22;7554;43.600;1.480;2024-02-26T05:57:38;8.50;99.90
14924;DHT22;7554;43.600;1.480;2024-02-26T06:00:07;7.10;99.90
14924;DHT22;7554;43.600;1.480;2024-02-26T06:02:34;8.20;99.90
14924;DHT22;7554;43.600;1.480;2024-02-26T06:05:04;7.20;99.90
14924;DHT22;7554;43.600;1.480;2024-02-26T06:07:33;7.10;99.90
14924;DHT22;7554;43.600;1.480;2024-02-26T06:10:00;7.00;99.90
14924;DHT22;7554;43.600;1.480;2024-02-26T06:12:28;6.90;99.90
14924;DHT22;7554;43.600;1.480;2024-02-26T06:14:56;8.00;99.90
14924;DHT22;7554;43.600;1.480;2024-02-26T06:17:27;7.60;99.90
14924;DHT22;7554;43.600;1.480;2024-02-26T06:19:54;7.10;99.90
14924;DHT22;7554;43.600;1.480;2024-02-26T06:22:23;7.10;99.90
14924;DHT22;7554;43.600;1.480;2024-02-26T06:24:50;8.20;99.90
14924;DHT22;7554;43.600;1.480;2024-02-26T06:27:18;7.00;99.90
14924;DHT22;7554;43.600;1.480;2024-02-26T06:29:47;7.90;99.90
14924;DHT22;7554;43.600;1.480;2024-02-26T06:32:14;6.90;99.90
14924;DHT22;7554;43.600;1.480;2024-02-26T06:34:42;8.00;99.90
14924;DHT22;7554;43.600;1.480;2024-02-26T06:37:09;8.00;99.90
14924;DHT22;7554;43.600;1.480;2024-02-26T06:39:38;6.80;99.90
14924;DHT22;7554;43.600;1.480;2024-02-26T06:42:06;6.70;99.90
14924;DHT22;7554;43.600;1.480;2024-02-26T06:44:36;8.00;99.90
14924;DHT22;7554;43.600;1.480;2024-02-26T06:47:04;7.60;99.90
14924;DHT22;7554;43.600;1.480;2024-02-26T06:49:31;8.20;99.90
14924;DHT22;7554;43.600;1.480;2024-02-26T06:51:58;7.80;99.90
14924;DHT22;7554;43.600;1.480;2024-02-26T06:54:26;7.80;99.90
14924;DHT22;7554;43.600;1.480;2024-02-26T06:56:55;8.10;99.90
14924;DHT22;7554;43.600;1.480;2024-02-26T06:59:22;7.30;99.90
14924;DHT22;7554;43.600;1.480;2024-02-26T07:01:50;6.90;99.90
14924;DHT22;7554;43.600;1.480;2024-02-26T07:04:17;7.10;99.90
14924;DHT22;7554;43.600;1.480;2024-02-26T07:06:44;8.20;99.90
14924;DHT22;7554;43.600;1.480;2024-02-26T07:09:13;8.10;99.90
14924;DHT22;7554;43.600;1.480;2024-02-26T07:11:40;8.70;99.90
14924;DHT22;7554;43.600;1.480;2024-02-26T07:14:11;10.20;99.90
14924;DHT22;7554;43.600;1.480;2024-02-26T07:16:39;10.90;99.90
14924;DHT22;7554;43.600;1.480;2024-02-26T07:19:06;11.50;99.90
14924;DHT22;7554;43.600;1.480;2024-02-26T07:21:33;12.20;1.00
14924;DHT22;7554;43.600;1.480;2024-02-26T07:24:01;12.70;99.90
14924;DHT22;7554;43.600;1.480;2024-02-26T07:26:28;13.50;99.90
14924;DHT22;7554;43.600;1.480;2024-02-26T07:28:56;13.90;99.90
14924;DHT22;7554;43.600;1.480;2024-02-26T07:31:25;14.30;1.00
14924;DHT22;7554;43.600;1.480;2024-02-26T07:33:53;15.10;99.90
14924;DHT22;7554;43.600;1.480;2024-02-26T07:36:20;15.50;1.00
14924;DHT22;7554;43.600;1.480;2024-02-26T07:38:47;16.10;1.00
14924;DHT22;7554;43.600;1.480;2024-02-26T07:41:15;16.80;99.90
14924;DHT22;7554;43.600;1.480;2024-02-26T07:43:42;16.70;99.90
14924;DHT22;7554;43.600;1.480;2024-02-26T07:46:11;16.90;99.90
14924;DHT22;7554;43.600;1.480;2024-02-26T07:48:41;17.60;99.90
14924;DHT22;7554;43.600;1.480;2024-02-26T07:51:08;18.20;90.00
14924;DHT22;7554;43.600;1.480;2024-02-26T07:53:35;17.90;64.20
14924;DHT22;7554;43.600;1.480;2024-02-26T07:56:03;18.30;57.70
14924;DHT22;7554;43.600;1.480;2024-02-26T07:58:31;19.00;45.00
14924;DHT22;7554;43.600;1.480;2024-02-26T08:00:59;19.10;25.00
14924;DHT22;7554;43.600;1.480;2024-02-26T08:03:26;19.70;19.00
14924;DHT22;7554;43.600;1.480;2024-02-26T08:05:55;19.50;14.80
14924;DHT22;7554;43.600;1.480;2024-02-26T08:08:23;19.30;6.10
14924;DHT22;7554;43.600;1.480;2024-02-26T08:10:50;19.70;1.00
14924;DHT22;7554;43.600;1.480;2024-02-26T08:13:17;20.60;1.00
14924;DHT22;7554;43.600;1.480;2024-02-26T08:15:45;20.80;1.00
14924;DHT22;7554;43.600;1.480;2024-02-26T08:18:12;20.90;1.00
14924;DHT22;7554;43.600;1.480;2024-02-26T08:20:39;21.40;1.00
14924;DHT22;7554;43.600;1.480;2024-02-26T08:23:08;21.40;1.00
14924;DHT22;7554;43.600;1.480;2024-02-26T08:25:35;21.10;1.00
14924;DHT22;7554;43.600;1.480;2024-02-26T08:28:03;21.10;1.00
14924;DHT22;7554;43.600;1.480;2024-02-26T08:30:31;20.60;1.00
14924;DHT22;7554;43.600;1.480;2024-02-26T08:33:00;20.00;1.00
14924;DHT22;7554;43.600;1.480;2024-02-26T08:35:27;18.90;1.00
14924;DHT22;7554;43.600;1.480;2024-02-26T08:37:54;16.30;1.00
14924;DHT22;7554;43.600;1.480;2024-02-26T08:40:23;15.20;1.00
14924;DHT22;7554;43.600;1.480;2024-02-26T08:42:50;14.70;1.00
14924;DHT22;7554;43.600;1.480;2024-02-26T08:45:18;14.50;1.00
14924;DHT22;7554;43.600;1.480;2024-02-26T08:47:45;14.20;1.00
14924;DHT22;7554;43.600;1.480;2024-02-26T08:50:13;14.30;1.00
14924;DHT22;7554;43.600;1.480;2024-02-26T08:52:41;14.20;1.00
14924;DHT22;7554;43.600;1.480;2024-02-26T08:55:08;14.30;1.00
14924;DHT22;7554;43.600;1.480;2024-02-26T08:57:37;14.50;1.00
14924;DHT22;7554;43.600;1.480;2024-02-26T09:00:06;14.40;1.00
14924;DHT22;7554;43.600;1.480;2024-02-26T09:02:33;14.30;1.00
14924;DHT22;7554;43.600;1.480;2024-02-26T09:05:01;14.20;1.00
14924;DHT22;7554;43.600;1.480;2024-02-26T09:07:28;14.30;1.00
14924;DHT22;7554;43.600;1.480;2024-02-26T09:09:55;14.30;1.00
14924;DHT22;7554;43.600;1.480;2024-02-26T09:12:23;14.60;1.00
14924;DHT22;7554;43.600;1.480;2024-02-26T09:14:52;14.60;1.00
14924;DHT22;7554;43.600;1.480;2024-02-26T09:17:19;14.60;1.00
14924;DHT22;7554;43.600;1.480;2024-02-26T09:19:46;14.50;1.00
14924;DHT22;7554;43.600;1.480;2024-02-26T09:22:14;14.60;1.00
14924;DHT22;7554;43.600;1.480;2024-02-26T09:24:41;14.50;1.00
14924;DHT22;7554;43.600;1.480;2024-02-26T09:27:08;14.90;1.00
14924;DHT22;7554;43.600;1.480;2024-02-26T09:29:36;14.90;1.00
14924;DHT22;7554;43.600;1.480;2024-02-26T09:32:05;15.20;1.00
14924;DHT22;7554;43.600;1.480;2024-02-26T09:34:32;15.10;1.00
14924;DHT22;7554;43.600;1.480;2024-02-26T09:37:00;14.90;1.00
14924;DHT22;7554;43.600;1.480;2024-02-26T09:39:27;14.90;1.00
14924;DHT22;7554;43.600;1.480;2024-02-26T09:41:55;15.00;1.00
14924;DHT22;7554;43.600;1.480;2024-02-26T09:44:25;14.80;1.00
14924;DHT22;7554;43.600;1.480;2024-02-26T09:46:56;14.50;1.00
14924;DHT22;7554;43.600;1.480;2024-02-26T09:49:26;14.50;1.00
14924;DHT22;7554;43.600;1.480;2024-02-26T09:51:54;14.40;1.00
14924;DHT22;7554;43.600;1.480;2024-02-26T09:54:24;14.40;1.00
14924;DHT22;7554;43.600;1.480;2024-02-26T09:56:59;14.50;1.00
14924;DHT22;7554;43.600;1.480;2024-02-26T09:59:27;14.50;1.00
14924;DHT22;7554;43.600;1.480;2024-02-26T10:01:55;14.50;1.00
14924;DHT22;7554;43.600;1.480;2024-02-26T10:04:26;14.30;1.00
14924;DHT22;7554;43.600;1.480;2024-02-26T10:06:54;14.20;1.00
14924;DHT22;7554;43.600;1.480;2024-02-26T10:09:22;14.30;1.00
14924;DHT22;7554;43.600;1.480;2024-02-26T10:11:50;14.50;1.00
14924;DHT22;7554;43.600;1.480;2024-02-26T10:14:17;15.00;1.00
14924;DHT22;7554;43.600;1.480;2024-02-26T10:16:44;15.30;1.00
14924;DHT22;7554;43.600;1.480;2024-02-26T10:19:26;15.80;1.00
14924;DHT22;7554;43.600;1.480;2024-02-26T10:21:56;15.90;1.00
14924;DHT22;7554;43.600;1.480;2024-02-26T10:24:24;16.10;1.00
14924;DHT22;7554;43.600;1.480;2024-02-26T10:26:52;16.20;1.00
14924;DHT22;7554;43.600;1.480;2024-02-26T10:29:20;16.30;1.00
14924;DHT22;7554;43.600;1.480;2024-02-26T10:31:48;16.00;1.00
14924;DHT22;7554;43.600;1.480;2024-02-26T10:34:15;15.80;1.00
14924;DHT22;7554;43.600;1.480;2024-02-26T10:36:44;15.70;1.00
14924;DHT22;7554;43.600;1.480;2024-02-26T10:39:12;15.80;1.00
14924;DHT22;7554;43.600;1.480;2024-02-26T10:41:40;15.80;1.00
14924;DHT22;7554;43.600;1.480;2024-02-26T10:44:09;15.30;1.00
14924;DHT22;7554;43.600;1.480;2024-02-26T10:46:38;14.90;1.00
14924;DHT22;7554;43.600;1.480;2024-02-26T10:49:13;14.70;1.00
14924;DHT22;7554;43.600;1.480;2024-02-26T10:51:44;14.40;1.00
14924;DHT22;7554;43.600;1.480;2024-02-26T10:54:15;14.40;1.00
14924;DHT22;7554;43.600;1.480;2024-02-26T10:56:43;14.40;1.00
14924;DHT22;7554;43.600;1.480;2024-02-26T10:59:12;14.50;1.00
14924;DHT22;7554;43.600;1.480;2024-02-26T11:01:41;14.40;1.00
14924;DHT22;7554;43.600;1.480;2024-02-26T11:04:12;14.40;1.00
14924;DHT22;7554;43.600;1.480;2024-02-26T11:06:40;14.60;1.00
14924;DHT22;7554;43.600;1.480;2024-02-26T11:09:11;14.90;1.00
14924;DHT22;7554;43.600;1.480;2024-02-26T11:11:39;15.00;1.00
14924;DHT22;7554;43.600;1.480;2024-02-26T11:14:08;15.30;1.00
14924;DHT22;7554;43.600;1.480;2024-02-26T11:16:38;15.60;1.00
14924;DHT22;7554;43.600;1.480;2024-02-26T11:19:07;15.50;1.00
14924;DHT22;7554;43.600;1.480;2024-02-26T11:21:36;15.40;1.00
14924;DHT22;7554;43.600;1.480;2024-02-26T11:24:12;15.60;1.00
14924;DHT22;7554;43.600;1.480;2024-02-26T11:26:44;15.80;1.00
14924;DHT22;7554;43.600;1.480;2024-02-26T11:29:15;15.80;1.00
14924;DHT22;7554;43.600;1.480;2024-02-26T11:31:43;16.10;1.00
14924;DHT22;7554;43.600;1.480;2024-02-26T11:34:11;16.30;1.00
14924;DHT22;7554;43.600;1.480;2024-02-26T11:36:39;16.20;1.00
14924;DHT22;7554;43.600;1.480;2024-02-26T11:39:11;16.20;1.00
14924;DHT22;7554;43.600;1.480;2024-02-26T11:41:41;16.10;1.00
14924;DHT22;7554;43.600;1.480;2024-02-26T11:44:08;15.90;1.00
14924;DHT22;7554;43.600;1.480;2024-02-26T11:46:39;15.90;1.00
14924;DHT22;7554;43.600;1.480;2024-02-26T11:49:29;15.90;1.00
14924;DHT22;7554;43.600;1.480;2024-02-26T11:51:58;16.10;1.00
14924;DHT22;7554;43.600;1.480;2024-02-26T11:54:55;15.80;1.00
14924;DHT22;7554;43.600;1.480;2024-02-26T11:57:24;15.60;1.00
14924;DHT22;7554;43.600;1.480;2024-02-26T11:59:53;15.70;1.00
14924;DHT22;7554;43.600;1.480;2024-02-26T12:02:40;16.10;1.00
14924;DHT22;7554;43.600;1.480;2024-02-26T12:05:10;16.10;1.00
14924;DHT22;7554;43.600;1.480;2024-02-26T12:07:40;15.70;1.00
14924;DHT22;7554;43.600;1.480;2024-02-26T12:10:25;15.70;1.00
14924;DHT22;7554;43.600;1.480;2024-02-26T12:12:59;15.60;1.00
14924;DHT22;7554;43.600;1.480;2024-02-26T12:15:31;16.00;1.00
14924;DHT22;7554;43.600;1.480;2024-02-26T12:18:01;16.00;1.00
14924;DHT22;7554;43.600;1.480;2024-02-26T12:20:29;16.20;1.00
14924;DHT22;7554;43.600;1.480;2024-02-26T12:22:57;16.20;1.00
14924;DHT22;7554;43.600;1.480;2024-02-26T12:25:27;16.20;1.00
14924;DHT22;7554;43.600;1.480;2024-02-26T12:27:55;16.30;1.00
14924;DHT22;7554;43.600;1.480;2024-02-26T12:30:23;16.40;1.00
14924;DHT22;7554;43.600;1.480;2024-02-26T12:32:52;16.50;1.00
14924;DHT22;7554;43.600;1.480;2024-02-26T12:35:22;16.40;1.00
14924;DHT22;7554;43.600;1.480;2024-02-26T12:37:51;16.40;1.00
14924;DHT22;7554;43.600;1.480;2024-02-26T12:40:19;16.60;1.00
14924;DHT22;7554;43.600;1.480;2024-02-26T12:42:48;16.50;1.00
14924;DHT22;7554;43.600;1.480;2024-02-26T12:45:16;16.70;1.00
14924;DHT22;7554;43.600;1.480;2024-02-26T12:47:44;16.60;1.00
14924;DHT22;7554;43.600;1.480;2024-02-26T12:50:13;16.20;1.00
14924;DHT22;7554;43.600;1.480;2024-02-26T12:52:43;15.80;1.00
14924;DHT22;7554;43.600;1.480;2024-02-26T12:55:16;15.70;1.00
14924;DHT22;7554;43.600;1.480;2024-02-26T12:57:45;15.60;1.00
14924;DHT22;7554;43.600;1.480;2024-02-26T13:00:18;15.50;1.00
14924;DHT22;7554;43.600;1.480;2024-02-26T13:02:46;15.30;1.00
14924;DHT22;7554;43.600;1.480;2024-02-26T13:05:14;15.20;1.00
14924;DHT22;7554;43.600;1.480;2024-02-26T13:07:41;15.20;1.00
14924;DHT22;7554;43.600;1.480;2024-02-26T13:10:09;15.20;1.00
14924;DHT22;7554;43.600;1.480;2024-02-26T13:12:42;15.20;1.00
14924;DHT22;7554;43.600;1.480;2024-02-26T13:15:16;15.20;1.00
14924;DHT22;7554;43.600;1.480;2024-02-26T13:17:44;15.00;1.00
14924;DHT22;7554;43.600;1.480;2024-02-26T13:20:11;15.00;1.00
14924;DHT22;7554;43.600;1.480;2024-02-26T13:22:39;15.00;1.00
14924;DHT22;7554;43.600;1.480;2024-02-26T13:25:07;15.10;1.00
14924;DHT22;7554;43.600;1.480;2024-02-26T13:27:35;15.20;1.00
14924;DHT22;7554;43.600;1.480;2024-02-26T13:30:08;15.10;1.00
14924;DHT22;7554;43.600;1.480;2024-02-26T13:32:38;14.90;1.00
14924;DHT22;7554;43.600;1.480;2024-02-26T13:35:07;14.70;1.00
14924;DHT22;7554;43.600;1.480;2024-02-26T13:37:34;14.60;1.00
14924;DHT22;7554;43.600;1.480;2024-02-26T13:40:05;14.40;1.00
14924;DHT22;7554;43.600;1.480;2024-02-26T13:42:33;14.40;1.00
14924;DHT22;7554;43.600;1.480;2024-02-26T13:45:00;14.50;1.00
14924;DHT22;7554;43.600;1.480;2024-02-26T13:47:27;14.50;1.00
14924;DHT22;7554;43.600;1.480;2024-02-26T13:49:56;14.50;1.00
14924;DHT22;7554;43.600;1.480;2024-02-26T13:52:23;14.50;1.00
14924;DHT22;7554;43.600;1.480;2024-02-26T13:54:51;14.50;1.00
14924;DHT22;7554;43.600;1.480;2024-02-26T13:57:19;14.50;1.00
14924;DHT22;7554;43.600;1.480;2024-02-26T13:59:47;14.50;1.00
14924;DHT22;7554;43.600;1.480;2024-02-26T14:02:15;14.50;1.00
14924;DHT22;7554;43.600;1.480;2024-02-26T14:04:42;14.40;1.00
14924;DHT22;7554;43.600;1.480;2024-02-26T14:07:12;14.40;1.00
14924;DHT22;7554;43.600;1.480;2024-02-26T14:09:39;14.40;1.00
14924;DHT22;7554;43.600;1.480;2024-02-26T14:12:07;14.30;1.00
14924;DHT22;7554;43.600;1.480;2024-02-26T14:14:34;14.30;1.00
14924;DHT22;7554;43.600;1.480;2024-02-26T14:17:04;14.30;1.00
14924;DHT22;7554;43.600;1.480;2024-02-26T14:19:32;14.20;1.00
14924;DHT22;7554;43.600;1.480;2024-02-26T14:21:59;14.10;1.00
14924;DHT22;7554;43.600;1.480;2024-02-26T14:24:28;14.20;1.00
14924;DHT22;7554;43.600;1.480;2024-02-26T14:26:55;14.20;1.00
14924;DHT22;7554;43.600;1.480;2024-02-26T14:29:22;14.20;1.00
14924;DHT22;7554;43.600;1.480;2024-02-26T14:31:50;14.20;1.00
14924;DHT22;7554;43.600;1.480;2024-02-26T14:34:17;14.20;1.00
14924;DHT22;7554;43.600;1.480;2024-02-26T14:36:44;14.20;1.00
14924;DHT22;7554;43.600;1.480;2024-02-26T14:39:12;14.30;1.00
14924;DHT22;7554;43.600;1.480;2024-02-26T14:41:41;14.20;1.00
14924;DHT22;7554;43.600;1.480;2024-02-26T14:44:08;14.30;1.00
14924;DHT22;7554;43.600;1.480;2024-02-26T14:46:37;14.30;1.00
14924;DHT22;7554;43.600;1.480;2024-02-26T14:49:04;14.40;1.00
14924;DHT22;7554;43.600;1.480;2024-02-26T14:51:32;14.40;1.00
14924;DHT22;7554;43.600;1.480;2024-02-26T14:53:59;14.30;1.00
14924;DHT22;7554;43.600;1.480;2024-02-26T14:56:27;14.40;99.90
14924;DHT22;7554;43.600;1.480;2024-02-26T14:58:56;14.40;99.90
14924;DHT22;7554;43.600;1.480;2024-02-26T15:03:51;14.60;1.00
14924;DHT22;7554;43.600;1.480;2024-02-26T15:06:19;14.60;1.00
14924;DHT22;7554;43.600;1.480;2024-02-26T15:08:47;14.80;1.00
14924;DHT22;7554;43.600;1.480;2024-02-26T15:11:14;14.70;1.00
14924;DHT22;7554;43.600;1.480;2024-02-26T15:13:41;14.60;1.00
14924;DHT22;7554;43.600;1.480;2024-02-26T15:16:17;14.40;1.00
14924;DHT22;7554;43.600;1.480;2024-02-26T15:18:44;14.20;1.00
14924;DHT22;7554;43.600;1.480;2024-02-26T15:21:12;14.10;82.90
14924;DHT22;7554;43.600;1.480;2024-02-26T15:23:42;14.00;99.90
14924;DHT22;7554;43.600;1.480;2024-02-26T15:26:10;14.20;99.90
14924;DHT22;7554;43.600;1.480;2024-02-26T15:28:37;14.30;1.00
14924;DHT22;7554;43.600;1.480;2024-02-26T15:31:05;14.40;99.90
14924;DHT22;7554;43.600;1.480;2024-02-26T15:33:35;14.40;33.00
14924;DHT22;7554;43.600;1.480;2024-02-26T15:36:03;14.50;1.00
14924;DHT22;7554;43.600;1.480;2024-02-26T15:38:30;14.50;1.00
14924;DHT22;7554;43.600;1.480;2024-02-26T15:40:58;14.70;1.00
14924;DHT22;7554;43.600;1.480;2024-02-26T15:43:25;14.60;1.00
14924;DHT22;7554;43.600;1.480;2024-02-26T15:45:52;14.50;1.00
14924;DHT22;7554;43.600;1.480;2024-02-26T15:48:20;14.40;1.00
14924;DHT22;7554;43.600;1.480;2024-02-26T15:50:48;14.30;1.00
14924;DHT22;7554;43.600;1.480;2024-02-26T15:53:15;14.20;1.00
14924;DHT22;7554;43.600;1.480;2024-02-26T15:55:43;14.20;1.00
14924;DHT22;7554;43.600;1.480;2024-02-26T15:58:10;14.10;99.90
14924;DHT22;7554;43.600;1.480;2024-02-26T16:03:08;14.20;72.70
14924;DHT22;7554;43.600;1.480;2024-02-26T16:05:36;14.00;1.00
14924;DHT22;7554;43.600;1.480;2024-02-26T16:08:11;14.00;1.00
14924;DHT22;7554;43.600;1.480;2024-02-26T16:10:39;13.80;1.00